sensor_id;sensor_type;location;lat;lon;timestamp;pressure;altitude;pressure_sealevel;temperature;humidity
39823;BME280;25499;53.958;10.970;2024-01-15T06:38:33;98680.97;;;0.47;100.00
39823;BME280;25499;53.958;10.970;2024-01-15T06:41:00;98678.47;;;0.54;100.00
39823;BME280;25499;53.958;10.970;2024-01-15T06:43:27;98673.31;;;0.48;100.00
39823;BME280;25499;53.958;10.970;2024-01-15T06:45:53;98688.69;;;0.50;100.00
39823;BME280;25499;53.958;10.970;2024-01-15T06:48:20;98677.59;;;0.59;100.00
39823;BME280;25499;53.958;10.970;2024-01-15T06:50:47;98662.22;;;0.52;100.00
39823;BME280;25499;53.958;10.970;2024-01-15T06:53:14;98672.47;;;0.48;100.00
39823;BME280;25499;53.958;10.970;2024-01-15T06:55:42;98674.13;;;0.40;100.00
39823;BME280;25499;53.958;10.970;2024-01-15T06:58:09;98681.81;;;0.41;100.00
39823;BME280;25499;53.958;10.970;2024-01-15T07:00:36;98681.84;;;0.43;100.00
39823;BME280;25499;53.958;10.970;2024-01-15T07:03:03;98690.34;;;0.40;100.00
39823;BME280;25499;53.958;10.970;2024-01-15T07:05:30;98689.50;;;0.41;100.00
39823;BME280;25499;53.958;10.970;2024-01-15T07:07:57;98701.44;;;0.45;100.00
39823;BME280;25499;53.958;10.970;2024-01-15T07:10:24;98692.00;;;0.30;100.00
39823;BME280;25499;53.958;10.970;2024-01-15T07:12:53;98699.69;;;0.27;100.00
39823;BME280;25499;53.958;10.970;2024-01-15T07:15:20;98701.38;;;0.28;100.00
39823;BME280;25499;53.958;10.970;2024-01-15T07:17:46;98699.69;;;0.27;100.00
39823;BME280;25499;53.958;10.970;2024-01-15T07:20:13;98711.66;;;0.38;100.00
39823;BME280;25499;53.958;10.970;2024-01-15T07:22:40;98716.75;;;0.31;100.00
39823;BME280;25499;53.958;10.970;2024-01-15T07:25:07;98708.22;;;0.29;100.00
39823;BME280;25499;53.958;10.970;2024-01-15T07:27:34;98713.34;;;0.34;100.00
39823;BME280;25499;53.958;10.970;2024-01-15T07:30:03;98709.06;;;0.28;100.00
39823;BME280;25499;53.958;10.970;2024-01-15T07:32:31;98709.91;;;0.30;100.00
39823;BME280;25499;53.958;10.970;2024-01-15T07:34:58;98712.44;;;0.29;100.00
39823;BME280;25499;53.958;10.970;2024-01-15T07:37:25;98725.25;;;0.30;100.00
39823;BME280;25499;53.958;10.970;2024-01-15T07:39:52;98721.03;;;0.32;100.00
39823;BME280;25499;53.958;10.970;2024-01-15T07:42:18;98721.88;;;0.31;100.00
39823;BME280;25499;53.958;10.970;2024-01-15T07:44:45;98733.03;;;0.43;100.00
39823;BME280;25499;53.958;10.970;2024-01-15T07:47:13;98728.75;;;0.45;100.00
39823;BME280;25499;53.958;10.970;2024-01-15T07:49:40;98733.06;;;0.55;100.00
39823;BME280;25499;53.958;10.970;2024-01-15T07:52:07;98732.22;;;0.59;100.00
39823;BME280;25499;53.958;10.970;2024-01-15T07:54:34;98733.97;;;0.63;100.00
39823;BME280;25499;53.958;10.970;2024-01-15T07:57:02;98728.84;;;0.65;100.00
39823;BME280;25499;53.958;10.970;2024-01-15T07:59:29;98729.72;;;0.68;100.00
39823;BME280;25499;53.958;10.970;2024-01-15T08:01:58;98739.13;;;0.76;100.00
39823;BME280;25499;53.958;10.970;2024-01-15T08:04:27;98739.97;;;0.74;100.00
39823;BME280;25499;53.958;10.970;2024-01-15T08:06:53;98735.72;;;0.80;100.00
39823;BME280;25499;53.958;10.970;2024-01-15T08:09:20;98742.56;;;0.82;100.00
39823;BME280;25499;53.958;10.970;2024-01-15T08:11:47;98737.44;;;0.85;100.00
39823;BME280;25499;53.958;10.970;2024-01-15T08:14:14;98746.81;;;0.85;100.00
39823;BME280;25499;53.958;10.970;2024-01-15T08:16:41;98746.00;;;0.90;100.00
39823;BME280;25499;53.958;10.970;2024-01-15T08:19:09;98742.59;;;0.87;100.00
39823;BME280;25499;53.958;10.970;2024-01-15T08:21:37;98743.41;;;0.86;100.00
39823;BME280;25499;53.958;10.970;2024-01-15T08:24:04;98755.41;;;0.88;100.00
39823;BME280;25499;53.958;10.970;2024-01-15T08:26:32;98757.94;;;0.91;100.00
39823;BME280;25499;53.958;10.970;2024-01-15T08:28:58;98757.09;;;0.89;100.00
39823;BME280;25499;53.958;10.970;2024-01-15T08:31:25;98762.22;;;0.91;100.00
39823;BME280;25499;53.958;10.970;2024-01-15T08:33:52;98763.09;;;0.95;100.00
39823;BME280;25499;53.958;10.970;2024-01-15T08:36:19;98765.69;;;1.02;100.00
39823;BME280;25499;53.958;10.970;2024-01-15T08:38:47;98774.22;;;1.01;100.00
39823;BME280;25499;53.958;10.970;2024-01-15T08:41:14;98766.53;;;1.03;100.00
39823;BME280;25499;53.958;10.970;2024-01-15T08:43:41;98771.69;;;1.10;100.00
39823;BME280;25499;53.958;10.970;2024-01-15T08:46:07;98762.28;;;1.11;100.00
39823;BME280;25499;53.958;10.970;2024-01-15T08:48:34;98772.56;;;1.16;100.00
39823;BME280;25499;53.958;10.970;2024-01-15T08:51:02;98776.81;;;1.17;100.00
39823;BME280;25499;53.958;10.970;2024-01-15T08:53:28;98766.56;;;1.17;100.00
39823;BME280;25499;53.958;10.970;2024-01-15T08:55:57;98763.97;;;1.12;100.00
39823;BME280;25499;53.958;10.970;2024-01-15T08:58:23;98762.31;;;1.16;100.00
39823;BME280;25499;53.958;10.970;2024-01-15T09:00:50;98756.31;;;1.15;100.00
39823;BME280;25499;53.958;10.970;2024-01-15T09:03:17;98757.19;;;1.17;100.00
39823;BME280;25499;53.958;10.970;2024-01-15T09:05:44;98764.88;;;1.22;100.00
39823;BME280;25499;53.958;10.970;2024-01-15T09:08:11;98746.94;;;1.29;100.00
39823;BME280;25499;53.958;10.970;2024-01-15T09:10:38;98764.06;;;1.44;100.00
39823;BME280;25499;53.958;10.970;2024-01-15T09:13:06;98775.19;;;1.71;100.00
39823;BME280;25499;53.958;10.970;2024-01-15T09:15:34;98757.25;;;1.66;100.00
39823;BME280;25499;53.958;10.970;2024-01-15T09:18:01;98734.16;;;1.66;100.00
39823;BME280;25499;53.958;10.970;2024-01-15T09:20:28;98729.03;;;1.49;100.00
39823;BME280;25499;53.958;10.970;2024-01-15T09:22:55;98706.78;;;1.41;100.00
39823;BME280;25499;53.958;10.970;2024-01-15T09:25:21;98697.38;;;1.63;100.00
39823;BME280;25499;53.958;10.970;2024-01-15T09:27:48;98708.50;;;1.74;100.00
39823;BME280;25499;53.958;10.970;2024-01-15T09:30:17;98705.09;;;1.78;100.00
39823;BME280;25499;53.958;10.970;2024-01-15T09:32:43;98729.81;;;2.13;100.00
39823;BME280;25499;53.958;10.970;2024-01-15T09:35:10;98711.88;;;2.05;100.00
39823;BME280;25499;53.958;10.970;2024-01-15T09:37:37;98711.00;;;2.03;100.00
39823;BME280;25499;53.958;10.970;2024-01-15T09:40:05;98696.50;;;1.95;100.00
39823;BME280;25499;53.958;10.970;2024-01-15T09:42:33;98662.34;;;1.65;100.00
39823;BME280;25499;53.958;10.970;2024-01-15T09:45:01;98650.38;;;1.48;100.00
39823;BME280;25499;53.958;10.970;2024-01-15T09:47:30;98656.38;;;1.54;100.00
39823;BME280;25499;53.958;10.970;2024-01-15T09:49:57;98668.31;;;1.61;100.00
39823;BME280;25499;53.958;10.970;2024-01-15T09:52:24;98670.03;;;1.65;100.00
39823;BME280;25499;53.958;10.970;2024-01-15T09:54:52;98687.94;;;1.90;100.00
39823;BME280;25499;53.958;10.970;2024-01-15T09:57:18;98666.63;;;1.75;100.00
39823;BME280;25499;53.958;10.970;2024-01-15T09:59:46;98645.25;;;1.58;100.00
39823;BME280;25499;53.958;10.970;2024-01-15T10:02:14;98653.81;;;1.55;100.00
39823;BME280;25499;53.958;10.970;2024-01-15T10:04:45;98665.78;;;1.56;100.00
39823;BME280;25499;53.958;10.970;2024-01-15T10:07:15;98724.53;;;2.66;100.00
39823;BME280;25499;53.958;10.970;2024-01-15T10:09:42;98725.31;;;4.02;100.00
39823;BME280;25499;53.958;10.970;2024-01-15T10:12:10;98718.16;;;4.99;100.00
39823;BME280;25499;53.958;10.970;2024-01-15T10:14:37;98659.03;;;5.44;100.00
39823;BME280;25499;53.958;10.970;2024-01-15T10:17:12;98615.44;;;5.77;98.98
39823;BME280;25499;53.958;10.970;2024-01-15T10:19:39;98605.66;;;6.38;96.44
39823;BME280;25499;53.958;10.970;2024-01-15T10:22:08;98520.44;;;5.94;93.34
39823;BME280;25499;53.958;10.970;2024-01-15T10:24:36;98497.31;;;6.30;91.46
39823;BME280;25499;53.958;10.970;2024-01-15T10:27:06;98495.47;;;7.40;89.04
39823;BME280;25499;53.958;10.970;2024-01-15T10:29:33;98359.47;;;6.31;86.70
39823;BME280;25499;53.958;10.970;2024-01-15T10:32:00;98397.81;;;6.48;86.28
39823;BME280;25499;53.958;10.970;2024-01-15T10:34:28;98363.25;;;6.18;85.43
39823;BME280;25499;53.958;10.970;2024-01-15T10:36:55;98304.41;;;5.15;85.24
39823;BME280;25499;53.958;10.970;2024-01-15T10:39:23;98365.75;;;5.43;85.30
39823;BME280;25499;53.958;10.970;2024-01-15T10:41:50;98340.44;;;5.60;83.91
39823;BME280;25499;53.958;10.970;2024-01-15T10:44:17;98254.88;;;4.59;83.15
39823;BME280;25499;53.958;10.970;2024-01-15T10:46:45;98231.84;;;4.04;83.58
39823;BME280;25499;53.958;10.970;2024-01-15T10:49:12;98243.88;;;3.49;83.69
39823;BME280;25499;53.958;10.970;2024-01-15T10:51:40;98303.25;;;3.35;85.09
39823;BME280;25499;53.958;10.970;2024-01-15T10:54:09;98329.22;;;3.14;86.06
39823;BME280;25499;53.958;10.970;2024-01-15T10:56:39;98333.09;;;2.79;86.44
39823;BME280;25499;53.958;10.970;2024-01-15T10:59:06;98356.97;;;2.87;86.86
39823;BME280;25499;53.958;10.970;2024-01-15T11:01:36;98383.50;;;2.91;87.28
39823;BME280;25499;53.958;10.970;2024-01-15T11:04:04;98409.88;;;3.04;87.82
39823;BME280;25499;53.958;10.970;2024-01-15T11:06:41;98462.41;;;3.59;88.16
39823;BME280;25499;53.958;10.970;2024-01-15T11:09:08;98447.06;;;3.52;88.13
39823;BME280;25499;53.958;10.970;2024-01-15T11:11:36;98454.69;;;3.60;88.33
39823;BME280;25499;53.958;10.970;2024-01-15T11:14:04;98452.22;;;3.51;88.21
39823;BME280;25499;53.958;10.970;2024-01-15T11:16:56;98398.56;;;3.22;86.88
39823;BME280;25499;53.958;10.970;2024-01-15T11:19:24;98325.72;;;2.45;86.18
39823;BME280;25499;53.958;10.970;2024-01-15T11:21:51;98297.88;;;2.02;86.13
39823;BME280;25499;53.958;10.970;2024-01-15T11:24:34;98332.94;;;2.03;86.62
39823;BME280;25499;53.958;10.970;2024-01-15T11:27:02;98330.38;;;2.03;86.41
39823;BME280;25499;53.958;10.970;2024-01-15T11:29:31;98383.88;;;2.52;86.58
39823;BME280;25499;53.958;10.970;2024-01-15T11:32:07;98436.16;;;3.32;86.89
39823;BME280;25499;53.958;10.970;2024-01-15T11:35:01;98455.66;;;4.15;86.18
39823;BME280;25499;53.958;10.970;2024-01-15T11:37:29;98411.50;;;4.40;84.83
39823;BME280;25499;53.958;10.970;2024-01-15T11:40:00;98355.34;;;4.59;83.51
39823;BME280;25499;53.958;10.970;2024-01-15T11:42:29;98297.19;;;4.45;82.31
39823;BME280;25499;53.958;10.970;2024-01-15T11:44:57;98225.94;;;3.99;81.17
39823;BME280;25499;53.958;10.970;2024-01-15T11:48:07;98224.41;;;3.87;81.22
39823;BME280;25499;53.958;10.970;2024-01-15T11:50:39;98290.34;;;4.90;81.17
39823;BME280;25499;53.958;10.970;2024-01-15T11:53:25;98309.22;;;5.71;80.29
39823;BME280;25499;53.958;10.970;2024-01-15T11:55:57;98226.72;;;5.67;78.28
39823;BME280;25499;53.958;10.970;2024-01-15T11:58:24;98225.69;;;6.10;77.34
39823;BME280;25499;53.958;10.970;2024-01-15T12:00:53;98157.13;;;5.98;76.05
39823;BME280;25499;53.958;10.970;2024-01-15T12:03:20;98109.88;;;5.60;75.19
39823;BME280;25499;53.958;10.970;2024-01-15T12:05:47;98062.22;;;5.08;75.08
39823;BME280;25499;53.958;10.970;2024-01-15T12:08:14;98083.63;;;4.74;75.05
39823;BME280;25499;53.958;10.970;2024-01-15T12:10:41;98034.16;;;4.19;74.96
39823;BME280;25499;53.958;10.970;2024-01-15T12:13:10;98182.41;;;4.74;77.19
39823;BME280;25499;53.958;10.970;2024-01-15T12:15:38;98353.81;;;6.50;77.39
39823;BME280;25499;53.958;10.970;2024-01-15T12:18:09;98326.81;;;8.63;73.78
39823;BME280;25499;53.958;10.970;2024-01-15T12:20:36;98127.41;;;9.21;69.40
39823;BME280;25499;53.958;10.970;2024-01-15T12:23:03;98163.91;;;10.22;67.63
39823;BME280;25499;53.958;10.970;2024-01-15T12:25:31;98176.38;;;11.84;65.57
39823;BME280;25499;53.958;10.970;2024-01-15T12:27:59;98025.09;;;11.85;61.70
39823;BME280;25499;53.958;10.970;2024-01-15T12:30:26;98020.44;;;12.08;60.25
39823;BME280;25499;53.958;10.970;2024-01-15T12:32:54;97956.75;;;12.44;57.99
39823;BME280;25499;53.958;10.970;2024-01-15T12:35:23;97930.66;;;12.90;55.97
39823;BME280;25499;53.958;10.970;2024-01-15T12:37:51;98007.75;;;13.71;55.58
39823;BME280;25499;53.958;10.970;2024-01-15T12:40:19;97878.38;;;13.35;53.65
39823;BME280;25499;53.958;10.970;2024-01-15T12:42:46;97811.19;;;12.94;52.36
39823;BME280;25499;53.958;10.970;2024-01-15T12:45:13;97821.19;;;12.71;52.03
39823;BME280;25499;53.958;10.970;2024-01-15T12:47:41;97742.53;;;12.04;51.69
39823;BME280;25499;53.958;10.970;2024-01-15T12:50:09;97531.00;;;9.26;52.48
39823;BME280;25499;53.958;10.970;2024-01-15T12:52:37;97736.41;;;8.62;56.04
39823;BME280;25499;53.958;10.970;2024-01-15T12:55:06;97657.78;;;7.17;56.56
39823;BME280;25499;53.958;10.970;2024-01-15T12:57:34;97608.69;;;5.52;57.83
39823;BME280;25499;53.958;10.970;2024-01-15T13:00:02;97769.19;;;5.05;60.56
39823;BME280;25499;53.958;10.970;2024-01-15T13:02:32;97818.22;;;4.39;62.21
39823;BME280;25499;53.958;10.970;2024-01-15T13:04:59;97896.31;;;4.04;63.50
39823;BME280;25499;53.958;10.970;2024-01-15T13:07:27;98165.31;;;5.45;65.56
39823;BME280;25499;53.958;10.970;2024-01-15T13:09:55;98335.94;;;8.48;64.63
39823;BME280;25499;53.958;10.970;2024-01-15T13:12:22;98245.84;;;9.90;61.60
39823;BME280;25499;53.958;10.970;2024-01-15T13:14:49;98055.78;;;9.17;59.53
39823;BME280;25499;53.958;10.970;2024-01-15T13:17:15;97900.72;;;7.25;59.63
39823;BME280;25499;53.958;10.970;2024-01-15T13:19:42;97888.91;;;6.14;61.03
39823;BME280;25499;53.958;10.970;2024-01-15T13:22:09;97947.59;;;5.49;62.59
39823;BME280;25499;53.958;10.970;2024-01-15T13:24:39;97992.13;;;4.92;64.36
39823;BME280;25499;53.958;10.970;2024-01-15T13:27:07;98046.06;;;4.63;65.50
39823;BME280;25499;53.958;10.970;2024-01-15T13:29:34;98106.06;;;4.29;66.86
39823;BME280;25499;53.958;10.970;2024-01-15T13:32:01;98128.41;;;3.84;67.24
39823;BME280;25499;53.958;10.970;2024-01-15T13:34:28;98200.00;;;3.60;69.15
39823;BME280;25499;53.958;10.970;2024-01-15T13:36:55;98263.66;;;3.46;70.31
39823;BME280;25499;53.958;10.970;2024-01-15T13:39:22;98302.56;;;3.23;71.26
39823;BME280;25499;53.958;10.970;2024-01-15T13:41:49;98357.59;;;3.08;72.17
39823;BME280;25499;53.958;10.970;2024-01-15T13:44:18;98403.13;;;2.96;72.94
39823;BME280;25499;53.958;10.970;2024-01-15T13:46:44;98394.06;;;2.61;73.23
39823;BME280;25499;53.958;10.970;2024-01-15T13:49:11;98400.19;;;2.45;73.28
39823;BME280;25499;53.958;10.970;2024-01-15T13:51:38;98478.06;;;2.49;74.70
39823;BME280;25499;53.958;10.970;2024-01-15T13:54:05;98523.47;;;2.40;75.93
39823;BME280;25499;53.958;10.970;2024-01-15T13:56:33;98545.75;;;2.37;76.06
39823;BME280;25499;53.958;10.970;2024-01-15T13:59:00;98579.16;;;2.32;76.97
39823;BME280;25499;53.958;10.970;2024-01-15T14:01:31;98610.91;;;2.17;77.72
39823;BME280;25499;53.958;10.970;2024-01-15T14:03:58;98629.72;;;2.21;78.09
39823;BME280;25499;53.958;10.970;2024-01-15T14:06:25;98641.72;;;2.14;78.29
39823;BME280;25499;53.958;10.970;2024-01-15T14:08:52;98663.97;;;2.09;79.07
39823;BME280;25499;53.958;10.970;2024-01-15T14:11:18;98689.63;;;2.11;79.41
39823;BME280;25499;53.958;10.970;2024-01-15T14:13:46;98693.94;;;2.01;79.58
39823;BME280;25499;53.958;10.970;2024-01-15T14:16:13;98716.19;;;1.96;80.36
39823;BME280;25499;53.958;10.970;2024-01-15T14:18:42;98731.56;;;1.86;81.00
39823;BME280;25499;53.958;10.970;2024-01-15T14:21:08;98751.25;;;1.78;81.26
39823;BME280;25499;53.958;10.970;2024-01-15T14:23:36;98775.19;;;1.79;82.00
39823;BME280;25499;53.958;10.970;2024-01-15T14:26:03;98791.44;;;1.76;82.67
39823;BME280;25499;53.958;10.970;2024-01-15T14:28:30;98791.44;;;1.70;82.83
39823;BME280;25499;53.958;10.970;2024-01-15T14:30:56;98805.97;;;1.62;82.94
39823;BME280;25499;53.958;10.970;2024-01-15T14:33:25;98781.16;;;1.48;82.77
39823;BME280;25499;53.958;10.970;2024-01-15T14:35:54;98791.41;;;1.44;82.95
39823;BME280;25499;53.958;10.970;2024-01-15T14:38:20;98794.81;;;1.38;83.10
39823;BME280;25499;53.958;10.970;2024-01-15T14:40:48;98810.19;;;1.40;83.75
39823;BME280;25499;53.958;10.970;2024-01-15T14:43:14;98825.59;;;1.41;83.84
39823;BME280;25499;53.958;10.970;2024-01-15T14:45:41;98836.69;;;1.39;83.98
39823;BME280;25499;53.958;10.970;2024-01-15T14:48:09;98848.63;;;1.35;84.61
39823;BME280;25499;53.958;10.970;2024-01-15T14:50:35;98864.03;;;1.38;85.02
39823;BME280;25499;53.958;10.970;2024-01-15T14:53:04;98874.28;;;1.38;85.10
39823;BME280;25499;53.958;10.970;2024-01-15T14:55:30;98875.97;;;1.30;85.35
39823;BME280;25499;53.958;10.970;2024-01-15T14:57:57;98887.91;;;1.28;85.48
39823;BME280;25499;53.958;10.970;2024-01-15T15:00:24;98889.63;;;1.24;85.64
39823;BME280;25499;53.958;10.970;2024-01-15T15:02:51;98901.53;;;1.15;85.90
39823;BME280;25499;53.958;10.970;2024-01-15T15:05:18;98904.06;;;1.04;86.28
39823;BME280;25499;53.958;10.970;2024-01-15T15:07:45;98927.06;;;0.99;86.70
39823;BME280;25499;53.958;10.970;2024-01-15T15:10:13;98943.31;;;1.01;86.55
39823;BME280;25499;53.958;10.970;2024-01-15T15:12:40;98938.16;;;0.97;86.40
39823;BME280;25499;53.958;10.970;2024-01-15T15:15:08;98933.00;;;0.92;86.12
39823;BME280;25499;53.958;10.970;2024-01-15T15:17:36;98911.63;;;0.84;85.66
39823;BME280;25499;53.958;10.970;2024-01-15T15:20:04;98912.47;;;0.86;85.69
39823;BME280;25499;53.958;10.970;2024-01-15T15:22:31;98911.63;;;0.84;85.62
39823;BME280;25499;53.958;10.970;2024-01-15T15:24:58;98915.00;;;0.83;85.58
39823;BME280;25499;53.958;10.970;2024-01-15T15:27:26;98903.06;;;0.79;85.19
39823;BME280;25499;53.958;10.970;2024-01-15T15:29:55;98897.06;;;0.77;85.17
39823;BME280;25499;53.958;10.970;2024-01-15T15:32:22;98908.19;;;0.80;85.29
39823;BME280;25499;53.958;10.970;2024-01-15T15:34:49;98912.44;;;0.80;85.26
39823;BME280;25499;53.958;10.970;2024-01-15T15:37:15;98919.25;;;0.78;85.51
39823;BME280;25499;53.958;10.970;2024-01-15T15:39:42;98916.66;;;0.71;85.35
39823;BME280;25499;53.958;10.970;2024-01-15T15:42:09;98910.63;;;0.62;85.49
39823;BME280;25499;53.958;10.970;2024-01-15T15:44:38;98918.25;;;0.57;85.69
39823;BME280;25499;53.958;10.970;2024-01-15T15:47:10;98931.91;;;0.58;85.85
39823;BME280;25499;53.958;10.970;2024-01-15T15:49:37;98942.16;;;0.59;85.95
39823;BME280;25499;53.958;10.970;2024-01-15T15:52:05;98947.31;;;0.61;86.07
39823;BME280;25499;53.958;10.970;2024-01-15T15:54:31;98969.53;;;0.63;86.07
39823;BME280;25499;53.958;10.970;2024-01-15T15:56:58;98971.22;;;0.60;86.38
39823;BME280;25499;53.958;10.970;2024-01-15T15:59:25;98983.97;;;0.57;86.39
39823;BME280;25499;53.958;10.970;2024-01-15T16:01:54;99003.59;;;0.58;86.49
39823;BME280;25499;53.958;10.970;2024-01-15T16:04:21;99001.84;;;0.52;86.74
39823;BME280;25499;53.958;10.970;2024-01-15T16:06:49;99018.06;;;0.54;86.92
39823;BME280;25499;53.958;10.970;2024-01-15T16:09:16;99003.56;;;0.51;86.71
39823;BME280;25499;53.958;10.970;2024-01-15T16:11:43;99003.50;;;0.47;86.44
39823;BME280;25499;53.958;10.970;2024-01-15T16:14:10;98995.00;;;0.48;86.35
39823;BME280;25499;53.958;10.970;2024-01-15T16:16:36;98997.53;;;0.46;86.40
39823;BME280;25499;53.958;10.970;2024-01-15T16:19:11;99007.81;;;0.49;86.58
39823;BME280;25499;53.958;10.970;2024-01-15T16:21:37;99010.38;;;0.48;86.39
39823;BME280;25499;53.958;10.970;2024-01-15T16:24:04;99000.94;;;0.45;86.36
39823;BME280;25499;53.958;10.970;2024-01-15T16:26:31;99016.34;;;0.50;86.70
39823;BME280;25499;53.958;10.970;2024-01-15T16:28:58;99018.03;;;0.46;86.52
39823;BME280;25499;53.958;10.970;2024-01-15T16:31:25;99020.59;;;0.48;86.42
39823;BME280;25499;53.958;10.970;2024-01-15T16:33:52;99000.91;;;0.39;86.23
39823;BME280;25499;53.958;10.970;2024-01-15T16:36:20;99005.09;;;0.34;86.30
39823;BME280;25499;53.958;10.970;2024-01-15T16:38:47;99012.75;;;0.34;86.45
39823;BME280;25499;53.958;10.970;2024-01-15T16:41:13;99014.41;;;0.29;86.55
39823;BME280;25499;53.958;10.970;2024-01-15T16:43:40;99021.28;;;0.30;86.70
39823;BME280;25499;53.958;10.970;2024-01-15T16:46:07;99022.94;;;0.26;86.73
39823;BME280;25499;53.958;10.970;2024-01-15T16:48:34;99047.75;;;0.33;87.01
39823;BME280;25499;53.958;10.970;2024-01-15T16:51:01;99057.16;;;0.34;87.28
39823;BME280;25499;53.958;10.970;2024-01-15T16:53:29;99071.66;;;0.35;87.73
39823;BME280;25499;53.958;10.970;2024-01-15T16:55:56;99089.59;;;0.39;87.85
39823;BME280;25499;53.958;10.970;2024-01-15T16:58:23;99081.03;;;0.35;87.78
39823;BME280;25499;53.958;10.970;2024-01-15T17:00:49;99076.78;;;0.37;87.68
39823;BME280;25499;53.958;10.970;2024-01-15T17:03:16;99081.09;;;0.40;87.75
39823;BME280;25499;53.958;10.970;2024-01-15T17:05:43;99084.50;;;0.39;88.06
39823;BME280;25499;53.958;10.970;2024-01-15T17:08:10;99093.00;;;0.36;87.95
39823;BME280;25499;53.958;10.970;2024-01-15T17:10:38;99096.38;;;0.33;88.21
39823;BME280;25499;53.958;10.970;2024-01-15T17:13:05;99094.63;;;0.28;88.17
39823;BME280;25499;53.958;10.970;2024-01-15T17:15:32;99093.72;;;0.24;88.19
39823;BME280;25499;53.958;10.970;2024-01-15T17:17:59;99103.16;;;0.28;88.36
39823;BME280;25499;53.958;10.970;2024-01-15T17:20:26;99117.69;;;0.31;88.30
39823;BME280;25499;53.958;10.970;2024-01-15T17:22:52;99108.19;;;0.24;88.22
39823;BME280;25499;53.958;10.970;2024-01-15T17:25:19;99113.31;;;0.24;88.34
39823;BME280;25499;53.958;10.970;2024-01-15T17:27:47;99124.34;;;0.18;88.47
39823;BME280;25499;53.958;10.970;2024-01-15T17:30:15;99139.81;;;0.26;88.70
39823;BME280;25499;53.958;10.970;2024-01-15T17:32:42;99152.59;;;0.26;88.88
39823;BME280;25499;53.958;10.970;2024-01-15T17:35:09;99142.31;;;0.21;88.74
39823;BME280;25499;53.958;10.970;2024-01-15T17:37:35;99143.13;;;0.20;88.54
39823;BME280;25499;53.958;10.970;2024-01-15T17:40:03;99144.00;;;0.19;88.69
39823;BME280;25499;53.958;10.970;2024-01-15T17:42:30;99156.84;;;0.22;88.73
39823;BME280;25499;53.958;10.970;2024-01-15T17:44:59;99179.03;;;0.25;89.04
39823;BME280;25499;53.958;10.970;2024-01-15T17:47:25;99197.03;;;0.31;89.66
39823;BME280;25499;53.958;10.970;2024-01-15T17:49:52;99206.34;;;0.26;89.73
39823;BME280;25499;53.958;10.970;2024-01-15T17:52:19;99202.09;;;0.26;89.79
39823;BME280;25499;53.958;10.970;2024-01-15T17:54:46;99208.97;;;0.32;89.73
39823;BME280;25499;53.958;10.970;2024-01-15T17:57:13;99212.28;;;0.25;89.81
39823;BME280;25499;53.958;10.970;2024-01-15T17:59:40;99207.97;;;0.19;89.86
39823;BME280;25499;53.958;10.970;2024-01-15T18:02:08;99222.44;;;0.18;89.99
39823;BME280;25499;53.958;10.970;2024-01-15T18:04:35;99223.28;;;0.17;90.23
39823;BME280;25499;53.958;10.970;2024-01-15T18:07:02;99239.50;;;0.18;90.28
39823;BME280;25499;53.958;10.970;2024-01-15T18:09:29;99239.47;;;0.16;90.45
39823;BME280;25499;53.958;10.970;2024-01-15T18:11:55;99249.81;;;0.23;90.57
39823;BME280;25499;53.958;10.970;2024-01-15T18:14:26;99247.16;;;0.18;90.54
39823;BME280;25499;53.958;10.970;2024-01-15T18:16:53;99252.38;;;0.24;90.67
39823;BME280;25499;53.958;10.970;2024-01-15T18:19:21;99268.66;;;0.28;91.06
39823;BME280;25499;53.958;10.970;2024-01-15T18:21:48;99266.03;;;0.25;91.21
39823;BME280;25499;53.958;10.970;2024-01-15T18:24:15;99273.69;;;0.23;91.42
39823;BME280;25499;53.958;10.970;2024-01-15T18:26:41;99277.13;;;0.25;91.95
39823;BME280;25499;53.958;10.970;2024-01-15T18:29:08;99302.75;;;0.27;92.07
39823;BME280;25499;53.958;10.970;2024-01-15T18:31:35;99299.34;;;0.26;92.16
39823;BME280;25499;53.958;10.970;2024-01-15T18:34:03;99289.06;;;0.25;91.74
39823;BME280;25499;53.958;10.970;2024-01-15T18:36:31;99289.06;;;0.25;91.71
39823;BME280;25499;53.958;10.970;2024-01-15T18:38:58;99297.63;;;0.27;91.61
39823;BME280;25499;53.958;10.970;2024-01-15T18:41:31;99296.75;;;0.25;91.64
39823;BME280;25499;53.958;10.970;2024-01-15T18:43:58;99299.22;;;0.20;91.79
39823;BME280;25499;53.958;10.970;2024-01-15T18:46:24;99303.53;;;0.21;91.96
39823;BME280;25499;53.958;10.970;2024-01-15T18:48:51;99294.91;;;0.16;92.04
39823;BME280;25499;53.958;10.970;2024-01-15T18:51:21;99292.34;;;0.14;92.01
39823;BME280;25499;53.958;10.970;2024-01-15T18:53:50;99294.94;;;0.17;91.49
39823;BME280;25499;53.958;10.970;2024-01-15T18:56:17;99295.78;;;0.18;91.92
39823;BME280;25499;53.958;10.970;2024-01-15T18:58:44;99288.94;;;0.15;91.91
39823;BME280;25499;53.958;10.970;2024-01-15T19:01:11;99301.75;;;0.17;92.15
39823;BME280;25499;53.958;10.970;2024-01-15T19:03:39;99311.03;;;0.12;92.15
39823;BME280;25499;53.958;10.970;2024-01-15T19:06:06;99305.03;;;0.10;92.28
39823;BME280;25499;53.958;10.970;2024-01-15T19:08:34;99315.28;;;0.10;92.69
39823;BME280;25499;53.958;10.970;2024-01-15T19:11:02;99316.09;;;0.07;92.36
39823;BME280;25499;53.958;10.970;2024-01-15T19:13:29;99305.81;;;0.04;92.31
39823;BME280;25499;53.958;10.970;2024-01-15T19:15:56;99289.38;;;-0.12;92.10
39823;BME280;25499;53.958;10.970;2024-01-15T19:18:24;99281.34;;;-0.33;91.88
39823;BME280;25499;53.958;10.970;2024-01-15T19:20:52;99304.63;;;-0.18;92.21
39823;BME280;25499;53.958;10.970;2024-01-15T19:23:18;99303.63;;;-0.26;92.39
39823;BME280;25499;53.958;10.970;2024-01-15T19:25:45;99300.81;;;-0.42;92.48
39823;BME280;25499;53.958;10.970;2024-01-15T19:28:13;99315.31;;;-0.41;92.93
39823;BME280;25499;53.958;10.970;2024-01-15T19:30:40;99334.84;;;-0.46;93.11
39823;BME280;25499;53.958;10.970;2024-01-15T19:33:08;99349.41;;;-0.40;93.39
39823;BME280;25499;53.958;10.970;2024-01-15T19:35:35;99362.03;;;-0.48;93.78
39823;BME280;25499;53.958;10.970;2024-01-15T19:38:04;99364.28;;;-0.65;94.21